createdAt,value
2019-05-22T00:00:41.890Z,100134.92
2019-05-22T00:03:16.092Z,100139.83
2019-05-22T00:05:48.187Z,100137.08
2019-05-22T00:08:19.683Z,100132.62
2019-05-22T00:10:53.933Z,100130.34
2019-05-22T00:13:31.613Z,100133.31
2019-05-22T00:16:04.120Z,100134.70
2019-05-22T00:18:37.909Z,100134.48
2019-05-22T00:21:10.692Z,100132.17
2019-05-22T00:23:42.629Z,100121.73
2019-05-22T00:26:15.053Z,100125.00
2019-05-22T00:28:46.017Z,100129.43
2019-05-22T00:31:18.615Z,100119.03
2019-05-22T00:33:49.667Z,100124.82
2019-05-22T00:36:20.919Z,100121.38
2019-05-22T00:38:51.865Z,100126.32
2019-05-22T00:41:24.560Z,100121.82
2019-05-22T00:43:56.963Z,100125.98
2019-05-22T00:46:28.724Z,100125.03
2019-05-22T00:49:00.031Z,100118.84
2019-05-22T00:51:50.112Z,100118.80
2019-05-22T00:54:29.036Z,100114.50
2019-05-22T00:57:15.647Z,100112.97
2019-05-22T00:59:49.541Z,100108.50
2019-05-22T01:02:27.450Z,100101.47
2019-05-22T01:05:00.047Z,100105.76
2019-05-22T01:07:39.411Z,100099.24
2019-05-22T01:10:12.479Z,100105.20
2019-05-22T01:12:46.875Z,100105.50
2019-05-22T01:15:21.484Z,100113.66
2019-05-22T01:17:54.514Z,100107.40
2019-05-22T01:20:28.547Z,100104.61
2019-05-22T01:23:03.686Z,100102.66
2019-05-22T01:25:36.307Z,100103.39
2019-05-22T01:28:09.186Z,100095.63
2019-05-22T01:30:57.922Z,100102.78
2019-05-22T01:33:37.728Z,100105.16
2019-05-22T01:36:39.787Z,100107.07
2019-05-22T01:39:26.379Z,100104.58
2019-05-22T01:42:02.356Z,100110.08
2019-05-22T01:44:36.453Z,100112.81
2019-05-22T01:47:14.894Z,100109.82
2019-05-22T01:49:52.878Z,100103.20
2019-05-22T01:52:24.394Z,100100.45
2019-05-22T01:54:57.878Z,100096.91
2019-05-22T01:57:30.293Z,100101.81
2019-05-22T02:00:03.876Z,100097.71
2019-05-22T02:02:35.775Z,100095.55
2019-05-22T02:05:09.226Z,100097.23
2019-05-22T02:07:41.851Z,100096.97
2019-05-22T02:10:17.597Z,100099.46
2019-05-22T02:12:55.112Z,100098.30
2019-05-22T02:15:27.792Z,100104.87
2019-05-22T02:18:00.611Z,100115.67
2019-05-22T02:20:31.431Z,100120.05
2019-05-22T02:23:02.554Z,100119.56
2019-05-22T02:25:34.624Z,100116.26
2019-05-22T02:28:06.320Z,100114.59
2019-05-22T02:30:40.944Z,100118.16
2019-05-22T02:33:13.808Z,100111.43
2019-05-22T02:35:45.441Z,100112.09
2019-05-22T02:38:16.897Z,100112.46
2019-05-22T02:40:49.413Z,100115.00
2019-05-22T02:43:22.054Z,100113.23
2019-05-22T02:45:53.147Z,100123.06
2019-05-22T02:48:25.966Z,100121.95
2019-05-22T02:50:57.463Z,100125.28
2019-05-22T02:53:29.906Z,100131.66
2019-05-22T02:56:00.726Z,100134.44
2019-05-22T02:58:31.682Z,100132.42
2019-05-22T03:01:05.855Z,100139.69
2019-05-22T03:03:38.889Z,100142.47
2019-05-22T03:06:14.095Z,100142.42
2019-05-22T03:09:23.994Z,100145.91
2019-05-22T03:12:11.655Z,100146.77
2019-05-22T03:14:43.563Z,100152.25
2019-05-22T03:17:30.501Z,100153.23
2019-05-22T03:20:04.613Z,100152.63
2019-05-22T03:22:41.068Z,100150.23
2019-05-22T03:25:12.993Z,100145.72
2019-05-22T03:27:47.117Z,100143.35
2019-05-22T03:30:24.785Z,100145.05
2019-05-22T03:32:57.708Z,100138.31
2019-05-22T03:35:31.796Z,100140.70
2019-05-22T03:38:04.806Z,100144.11
2019-05-22T03:40:37.380Z,100149.79
2019-05-22T03:43:20.551Z,100147.77
2019-05-22T03:45:54.562Z,100145.50
2019-05-22T03:48:26.638Z,100146.94
2019-05-22T03:51:01.075Z,100135.71
2019-05-22T03:53:32.456Z,100155.47
2019-05-22T03:56:03.925Z,100148.66
2019-05-22T03:58:36.482Z,100153.84
2019-05-22T04:01:08.284Z,100153.92
2019-05-22T04:03:40.670Z,100154.02
2019-05-22T04:06:12.614Z,100156.53
2019-05-22T04:08:43.983Z,100140.17
2019-05-22T04:11:14.977Z,100153.88
2019-05-22T04:13:45.821Z,100148.28
2019-05-22T04:16:19.246Z,100144.89
2019-05-22T04:18:51.467Z,100147.59
2019-05-22T04:21:22.515Z,100150.65
2019-05-22T04:23:53.675Z,100149.75
2019-05-22T04:26:26.819Z,100151.58
2019-05-22T04:28:58.117Z,100147.77
2019-05-22T04:32:10.826Z,100154.31
2019-05-22T04:34:41.619Z,100149.64
2019-05-22T04:37:14.948Z,100152.75
2019-05-22T04:39:49.578Z,100153.15
2019-05-22T04:42:21.849Z,100152.66
2019-05-22T04:45:11.469Z,100147.58
2019-05-22T04:47:43.695Z,100151.42
2019-05-22T04:50:16.131Z,100148.08
2019-05-22T04:52:49.982Z,100140.88
2019-05-22T04:55:21.246Z,100143.58
2019-05-22T04:57:52.699Z,100150.42
2019-05-22T05:00:26.350Z,100152.59
2019-05-22T05:02:57.073Z,100151.16
2019-05-22T05:05:30.113Z,100153.84
2019-05-22T05:08:01.358Z,100150.91
2019-05-22T05:10:34.525Z,100155.95
2019-05-22T05:13:05.808Z,100157.61
2019-05-22T05:15:37.393Z,100161.83
2019-05-22T05:18:08.630Z,100158.96
2019-05-22T05:20:39.817Z,100157.06
2019-05-22T05:23:10.400Z,100165.36
2019-05-22T05:25:42.520Z,100152.78
2019-05-22T05:28:14.863Z,100158.97
2019-05-22T05:30:45.727Z,100160.34
2019-05-22T05:33:16.523Z,100153.81
2019-05-22T05:35:50.477Z,100155.07
2019-05-22T05:38:23.809Z,100153.75
2019-05-22T05:40:57.947Z,100144.77
2019-05-22T05:43:29.319Z,100141.97
2019-05-22T05:46:00.205Z,100148.72
2019-05-22T05:48:35.292Z,100148.33
2019-05-22T05:51:43.212Z,100155.62
2019-05-22T05:54:15.508Z,100162.75
2019-05-22T05:56:49.908Z,100163.75
2019-05-22T05:59:26.682Z,100173.88
2019-05-22T06:01:58.306Z,100169.14
2019-05-22T06:04:35.891Z,100177.50
2019-05-22T06:07:22.011Z,100180.78
2019-05-22T06:09:59.568Z,100179.73
2019-05-22T06:12:32.028Z,100181.14
2019-05-22T06:15:03.754Z,100189.44
2019-05-22T06:18:10.781Z,100189.25
2019-05-22T06:20:43.148Z,100191.86
2019-05-22T06:23:52.554Z,100200.76
2019-05-22T06:26:52.463Z,100194.92
2019-05-22T06:29:27.797Z,100196.08
2019-05-22T06:32:43.393Z,100193.41
2019-05-22T06:35:15.157Z,100197.20
2019-05-22T06:37:54.684Z,100194.04
2019-05-22T06:40:27.772Z,100193.16
2019-05-22T06:43:37.908Z,100190.73
2019-05-22T06:46:12.053Z,100188.18
2019-05-22T06:48:44.582Z,100186.00
2019-05-22T06:51:19.370Z,100190.29
2019-05-22T06:53:48.517Z,100186.70
2019-05-22T06:56:23.599Z,100185.73
2019-05-22T06:58:52.225Z,100187.25
2019-05-22T07:01:23.353Z,100183.77
2019-05-22T07:03:54.060Z,100182.61
2019-05-22T07:06:24.789Z,100173.76
2019-05-22T07:08:56.138Z,100176.58
2019-05-22T07:11:26.906Z,100175.51
2019-05-22T07:13:59.415Z,100178.03
2019-05-22T07:16:31.723Z,100178.70
2019-05-22T07:19:04.270Z,100178.59
2019-05-22T07:21:35.888Z,100178.17
2019-05-22T07:24:06.968Z,100178.48
2019-05-22T07:26:41.531Z,100173.22
2019-05-22T07:29:12.462Z,100168.97
2019-05-22T07:31:42.981Z,100174.60
2019-05-22T07:34:15.344Z,100172.87
2019-05-22T07:36:48.050Z,100176.87
2019-05-22T07:39:19.226Z,100173.90
2019-05-22T07:41:51.092Z,100175.91
2019-05-22T07:44:22.883Z,100179.64
2019-05-22T07:46:54.854Z,100176.20
2019-05-22T07:49:26.005Z,100177.34
2019-05-22T07:52:01.595Z,100176.66
2019-05-22T07:54:29.838Z,100183.90
2019-05-22T07:57:01.299Z,100183.64
2019-05-22T07:59:32.702Z,100186.81
2019-05-22T08:02:04.574Z,100182.48
2019-05-22T08:04:36.618Z,100193.52
2019-05-22T08:07:09.163Z,100191.02
2019-05-22T08:09:40.350Z,100194.92
2019-05-22T08:12:13.210Z,100193.84
2019-05-22T08:14:44.704Z,100188.06
2019-05-22T08:17:18.171Z,100200.39
2019-05-22T08:19:50.317Z,100185.95
2019-05-22T08:22:22.616Z,100183.55
2019-05-22T08:24:53.660Z,100185.87
2019-05-22T08:27:26.283Z,100183.68
2019-05-22T08:29:57.242Z,100184.36
2019-05-22T08:32:29.674Z,100187.23
2019-05-22T08:35:00.972Z,100185.66
2019-05-22T08:37:35.571Z,100194.75
2019-05-22T08:40:08.041Z,100189.94
2019-05-22T08:42:40.576Z,100188.17
2019-05-22T08:45:12.514Z,100188.47
2019-05-22T08:47:43.791Z,100188.88
2019-05-22T08:50:17.402Z,100184.16
2019-05-22T08:52:49.587Z,100187.38
2019-05-22T08:55:21.002Z,100176.28
2019-05-22T08:57:51.453Z,100176.52
2019-05-22T09:00:24.421Z,100175.08
2019-05-22T09:02:55.922Z,100180.95
2019-05-22T09:05:27.427Z,100174.58
2019-05-22T09:07:59.730Z,100173.36
2019-05-22T09:10:30.559Z,100175.76
2019-05-22T09:13:01.408Z,100174.34
2019-05-22T09:15:33.570Z,100172.27
2019-05-22T09:18:04.415Z,100169.95
2019-05-22T09:20:48.773Z,100163.75
2019-05-22T09:23:08.654Z,100169.28
2019-05-22T09:25:39.149Z,100165.84
2019-05-22T09:28:11.628Z,100170.32
2019-05-22T09:30:42.977Z,100172.44
2019-05-22T09:33:15.019Z,100175.51
2019-05-22T09:35:46.064Z,100170.36
2019-05-22T09:38:17.209Z,100168.91
2019-05-22T09:40:48.598Z,100161.97
2019-05-22T09:43:19.010Z,100156.91
2019-05-22T09:45:49.459Z,100164.23
2019-05-22T09:48:20.500Z,100158.67
2019-05-22T09:50:52.553Z,100160.52
2019-05-22T09:53:23.426Z,100161.77
2019-05-22T09:55:55.378Z,100163.59
2019-05-22T09:58:28.008Z,100170.92
2019-05-22T10:00:59.003Z,100162.48
2019-05-22T10:03:29.524Z,100159.17
2019-05-22T10:06:01.240Z,100162.08
2019-05-22T10:08:32.391Z,100160.36
2019-05-22T10:11:03.680Z,100163.54
2019-05-22T10:13:34.771Z,100152.17
2019-05-22T10:16:05.617Z,100161.01
2019-05-22T10:18:36.239Z,100155.28
2019-05-22T10:21:07.642Z,100150.09
2019-05-22T10:23:38.136Z,100138.09
2019-05-22T10:26:08.806Z,100140.89
2019-05-22T10:28:40.008Z,100142.52
2019-05-22T10:31:11.699Z,100144.26
2019-05-22T10:33:43.849Z,100145.53
2019-05-22T10:36:14.453Z,100146.08
2019-05-22T10:38:44.978Z,100145.29
2019-05-22T10:41:16.082Z,100143.83
2019-05-22T10:43:47.230Z,100142.83
2019-05-22T10:46:17.791Z,100142.40
2019-05-22T10:48:48.677Z,100146.88
2019-05-22T10:51:20.230Z,100152.17
2019-05-22T10:53:51.383Z,100148.88
2019-05-22T10:56:21.884Z,100135.96
2019-05-22T10:58:52.303Z,100157.41
2019-05-22T11:01:23.643Z,100161.42
2019-05-22T11:03:54.914Z,100166.48
2019-05-22T11:06:26.285Z,100164.23
2019-05-22T11:08:58.045Z,100166.59
2019-05-22T11:11:29.736Z,100163.70
2019-05-22T11:14:02.414Z,100164.12
2019-05-22T11:16:33.062Z,100157.64
2019-05-22T11:19:06.167Z,100149.94
2019-05-22T11:21:37.604Z,100154.87
2019-05-22T11:24:08.977Z,100156.02
2019-05-22T11:26:39.984Z,100158.63
2019-05-22T11:29:11.855Z,100162.25
2019-05-22T11:31:44.572Z,100167.64
2019-05-22T11:34:15.406Z,100166.30
2019-05-22T11:36:46.348Z,100170.88
2019-05-22T11:39:36.360Z,100165.74
2019-05-22T11:41:53.126Z,100172.02
2019-05-22T11:44:24.096Z,100172.80
2019-05-22T11:46:54.901Z,100168.29
2019-05-22T11:49:25.769Z,100161.98
2019-05-22T11:51:58.002Z,100166.86
2019-05-22T11:54:29.151Z,100172.13
2019-05-22T11:57:00.170Z,100176.05
2019-05-22T11:59:30.937Z,100165.38
2019-05-22T12:02:01.599Z,100174.47
2019-05-22T12:04:47.196Z,100162.99
2019-05-22T12:07:06.072Z,100158.17
2019-05-22T12:09:37.230Z,100147.55
2019-05-22T12:12:10.305Z,100142.11
2019-05-22T12:14:41.168Z,100138.62
2019-05-22T12:17:12.898Z,100143.01
2019-05-22T12:19:43.935Z,100141.42
2019-05-22T12:22:19.842Z,100133.75
2019-05-22T12:24:49.412Z,100130.56
2019-05-22T12:27:20.291Z,100125.16
2019-05-22T12:29:51.595Z,100122.37
2019-05-22T12:32:22.323Z,100124.67
2019-05-22T12:34:54.740Z,100115.41
2019-05-22T12:37:27.286Z,100117.95
2019-05-22T12:39:59.773Z,100117.20
2019-05-22T12:42:30.589Z,100112.23
2019-05-22T12:45:01.412Z,100111.36
2019-05-22T12:47:32.231Z,100118.20
2019-05-22T12:50:05.239Z,100115.34
2019-05-22T12:52:37.961Z,100121.81
2019-05-22T12:55:11.265Z,100116.13
2019-05-22T12:57:46.028Z,100118.56
2019-05-22T13:00:17.710Z,100112.63
2019-05-22T13:02:48.886Z,100113.02
2019-05-22T13:05:20.248Z,100112.81
2019-05-22T13:07:52.228Z,100106.38
2019-05-22T13:10:23.928Z,100113.75
2019-05-22T13:12:56.234Z,100109.81
2019-05-22T13:15:27.626Z,100112.59
2019-05-22T13:18:01.332Z,100118.68
2019-05-22T13:20:42.513Z,100121.26
2019-05-22T13:23:10.204Z,100118.01
2019-05-22T13:25:43.117Z,100122.75
2019-05-22T13:28:17.318Z,100117.37
2019-05-22T13:30:52.980Z,100117.17
2019-05-22T13:33:27.829Z,100117.22
2019-05-22T13:35:59.830Z,100129.09
2019-05-22T13:38:30.812Z,100127.98
2019-05-22T13:41:02.089Z,100125.20
2019-05-22T13:43:35.215Z,100116.28
2019-05-22T13:46:06.878Z,100118.67
2019-05-22T13:48:37.957Z,100119.52
2019-05-22T13:51:09.956Z,100116.12
2019-05-22T13:53:41.859Z,100125.70
2019-05-22T13:56:13.698Z,100119.48
2019-05-22T13:58:44.864Z,100130.89
2019-05-22T14:01:16.190Z,100126.95
2019-05-22T14:03:47.071Z,100123.30
2019-05-22T14:06:17.902Z,100112.17
2019-05-22T14:08:48.488Z,100113.72
2019-05-22T14:11:20.464Z,100122.84
2019-05-22T14:13:53.212Z,100115.83
2019-05-22T14:16:24.912Z,100125.23
2019-05-22T14:18:56.097Z,100119.89
2019-05-22T14:21:26.789Z,100122.01
2019-05-22T14:23:57.980Z,100122.34
2019-05-22T14:26:30.058Z,100117.92
2019-05-22T14:29:01.483Z,100116.47
2019-05-22T14:31:32.413Z,100112.28
2019-05-22T14:34:04.764Z,100122.84
2019-05-22T14:36:36.201Z,100117.47
2019-05-22T14:39:08.504Z,100117.76
2019-05-22T14:41:40.721Z,100108.81
2019-05-22T14:44:11.610Z,100115.42
2019-05-22T14:46:42.386Z,100119.67
2019-05-22T14:49:13.282Z,100120.56
2019-05-22T14:51:45.332Z,100114.20
2019-05-22T14:54:16.768Z,100098.00
2019-05-22T14:56:48.034Z,100102.45
2019-05-22T14:59:19.215Z,100104.55
2019-05-22T15:01:49.971Z,100108.03
2019-05-22T15:04:21.780Z,100109.69
2019-05-22T15:06:53.496Z,100105.78
2019-05-22T15:09:24.465Z,100103.28
2019-05-22T15:11:55.430Z,100100.28
2019-05-22T15:14:26.643Z,100108.31
2019-05-22T15:16:57.484Z,100108.08
2019-05-22T15:19:29.546Z,100108.91
2019-05-22T15:22:00.278Z,100094.60
2019-05-22T15:24:31.493Z,100093.31
2019-05-22T15:27:03.628Z,100088.88
2019-05-22T15:29:34.468Z,100080.83
2019-05-22T15:32:06.554Z,100080.95
2019-05-22T15:34:39.441Z,100083.20
2019-05-22T15:37:11.526Z,100087.55
2019-05-22T15:39:43.291Z,100091.37
2019-05-22T15:42:27.813Z,100094.27
2019-05-22T15:45:00.399Z,100096.97
2019-05-22T15:47:50.308Z,100099.41
2019-05-22T15:50:05.752Z,100106.02
2019-05-22T15:52:38.298Z,100102.02
2019-05-22T15:55:13.292Z,100096.89
2019-05-22T15:57:44.464Z,100096.16
2019-05-22T16:00:19.590Z,100095.48
2019-05-22T16:02:51.110Z,100104.16
2019-05-22T16:05:23.611Z,100102.19
2019-05-22T16:07:55.333Z,100099.09
2019-05-22T16:10:26.362Z,100104.08
2019-05-22T16:12:58.204Z,100097.98
2019-05-22T16:15:30.840Z,100102.55
2019-05-22T16:18:11.542Z,100098.81
2019-05-22T16:20:41.677Z,100104.77
2019-05-22T16:23:14.322Z,100111.23
2019-05-22T16:25:45.149Z,100104.14
2019-05-22T16:28:16.405Z,100105.56
2019-05-22T16:30:47.145Z,100105.94
2019-05-22T16:33:17.994Z,100115.19
2019-05-22T16:35:48.817Z,100114.01
2019-05-22T16:38:21.267Z,100108.89
2019-05-22T16:40:52.192Z,100106.75
2019-05-22T16:43:24.230Z,100105.17
2019-05-22T16:45:56.625Z,100100.30
2019-05-22T16:48:29.489Z,100097.52
2019-05-22T16:51:00.993Z,100098.28
2019-05-22T16:53:33.425Z,100102.88
2019-05-22T16:56:05.663Z,100105.39
2019-05-22T16:58:38.911Z,100109.52
2019-05-22T17:01:10.266Z,100105.05
2019-05-22T17:03:41.694Z,100100.97
2019-05-22T17:06:30.997Z,100104.12
2019-05-22T17:09:04.306Z,100095.00
2019-05-22T17:11:35.516Z,100089.73
2019-05-22T17:14:08.721Z,100092.73
2019-05-22T17:16:41.570Z,100099.38
2019-05-22T17:19:26.621Z,100100.20
2019-05-22T17:21:46.320Z,100106.70
2019-05-22T17:24:20.713Z,100103.38
2019-05-22T17:26:52.812Z,100098.59
2019-05-22T17:29:24.549Z,100096.28
2019-05-22T17:31:55.962Z,100096.48
2019-05-22T17:34:33.318Z,100091.03
2019-05-22T17:37:12.013Z,100081.06
2019-05-22T17:39:45.753Z,100073.97
2019-05-22T17:42:23.626Z,100071.34
2019-05-22T17:44:55.743Z,100075.80
2019-05-22T17:47:28.094Z,100087.90
2019-05-22T17:50:00.260Z,100085.09
2019-05-22T17:52:32.192Z,100092.57
2019-05-22T17:55:02.670Z,100082.14
2019-05-22T17:57:33.417Z,100084.91
2019-05-22T18:00:06.893Z,100090.05
2019-05-22T18:02:37.904Z,100096.52
2019-05-22T18:05:09.953Z,100097.84
2019-05-22T18:07:40.829Z,100100.66
2019-05-22T18:10:13.551Z,100103.45
2019-05-22T18:12:44.398Z,100101.45
2019-05-22T18:15:16.026Z,100104.30
2019-05-22T18:17:48.907Z,100109.76
2019-05-22T18:20:19.962Z,100110.59
2019-05-22T18:22:50.945Z,100106.45
2019-05-22T18:25:22.146Z,100105.77
2019-05-22T18:27:53.648Z,100114.23
2019-05-22T18:30:26.189Z,100118.52
2019-05-22T18:32:57.314Z,100127.30
2019-05-22T18:35:28.407Z,100132.92
2019-05-22T18:38:04.159Z,100132.44
2019-05-22T18:40:34.209Z,100131.92
2019-05-22T18:43:06.054Z,100142.00
2019-05-22T18:45:37.494Z,100142.84
2019-05-22T18:48:11.096Z,100143.68
2019-05-22T18:50:44.898Z,100142.98
2019-05-22T18:53:16.363Z,100142.16
2019-05-22T18:55:47.309Z,100142.97
2019-05-22T18:58:19.139Z,100142.81
2019-05-22T19:00:49.999Z,100136.02
2019-05-22T19:03:22.233Z,100139.95
2019-05-22T19:05:54.006Z,100136.66
2019-05-22T19:08:26.006Z,100135.83
2019-05-22T19:10:56.747Z,100141.09
2019-05-22T19:13:27.323Z,100137.78
2019-05-22T19:15:58.573Z,100133.49
2019-05-22T19:18:29.450Z,100137.95
2019-05-22T19:21:02.197Z,100134.94
2019-05-22T19:23:32.877Z,100133.79
2019-05-22T19:26:06.354Z,100138.75
2019-05-22T19:28:43.333Z,100136.05
2019-05-22T19:31:10.372Z,100129.11
2019-05-22T19:34:01.263Z,100131.44
2019-05-22T19:36:32.073Z,100131.76
2019-05-22T19:39:05.346Z,100133.79
2019-05-22T19:41:36.573Z,100126.84
2019-05-22T19:44:09.471Z,100118.09
2019-05-22T19:46:40.600Z,100112.62
2019-05-22T19:49:12.421Z,100102.36
2019-05-22T19:51:44.435Z,100100.98
2019-05-22T19:54:15.817Z,100095.98
2019-05-22T19:56:47.182Z,100101.61
2019-05-22T19:59:19.153Z,100099.73
2019-05-22T20:01:50.376Z,100102.51
2019-05-22T20:04:21.644Z,100106.88
2019-05-22T20:06:53.097Z,100104.84
2019-05-22T20:09:25.758Z,100104.69
2019-05-22T20:11:56.393Z,100108.66
2019-05-22T20:14:30.434Z,100104.04
2019-05-22T20:17:01.189Z,100104.84
2019-05-22T20:19:32.045Z,100098.63
2019-05-22T20:22:04.950Z,100101.22
2019-05-22T20:24:37.477Z,100102.23
2019-05-22T20:27:09.887Z,100100.42
2019-05-22T20:29:41.582Z,100098.55
2019-05-22T20:32:14.197Z,100092.25
2019-05-22T20:34:45.420Z,100088.58
2019-05-22T20:37:16.377Z,100089.73
2019-05-22T20:39:47.519Z,100082.69
2019-05-22T20:42:18.314Z,100081.17
2019-05-22T20:44:50.141Z,100079.33
2019-05-22T20:47:25.577Z,100076.67
2019-05-22T20:49:57.555Z,100075.99
2019-05-22T20:52:31.839Z,100072.67
2019-05-22T20:55:03.253Z,100073.47
2019-05-22T20:57:34.541Z,100073.94
2019-05-22T21:00:07.272Z,100077.90
2019-05-22T21:02:40.526Z,100085.81
2019-05-22T21:05:13.260Z,100089.09
2019-05-22T21:07:51.240Z,100082.28
2019-05-22T21:10:42.953Z,100085.88
2019-05-22T21:13:14.284Z,100085.64
2019-05-22T21:15:45.392Z,100086.43
2019-05-22T21:18:17.336Z,100084.58
2019-05-22T21:20:55.126Z,100071.69
2019-05-22T21:23:25.619Z,100073.84
2019-05-22T21:25:56.385Z,100077.28
2019-05-22T21:28:28.135Z,100075.59
2019-05-22T21:30:59.410Z,100072.64
2019-05-22T21:33:30.994Z,100066.50
2019-05-22T21:36:02.170Z,100067.61
2019-05-22T21:38:33.643Z,100063.81
2019-05-22T21:41:04.875Z,100057.21
2019-05-22T21:43:36.367Z,100063.81
2019-05-22T21:46:08.072Z,100063.81
2019-05-22T21:48:41.334Z,100060.47
2019-05-22T21:51:12.830Z,100059.55
2019-05-22T21:53:44.664Z,100059.86
2019-05-22T21:56:15.705Z,100063.71
2019-05-22T21:58:46.942Z,100063.66
2019-05-22T22:01:25.968Z,100055.11
2019-05-22T22:04:23.539Z,100057.59
2019-05-22T22:06:55.492Z,100055.41
2019-05-22T22:09:27.871Z,100051.94
2019-05-22T22:11:59.321Z,100052.23
2019-05-22T22:14:32.627Z,100049.55
2019-05-22T22:17:04.023Z,100049.70
2019-05-22T22:19:35.618Z,100044.13
2019-05-22T22:22:10.891Z,100043.11
2019-05-22T22:24:43.149Z,100047.73
2019-05-22T22:27:15.375Z,100043.48
2019-05-22T22:29:47.900Z,100047.75
2019-05-22T22:32:20.913Z,100049.06
2019-05-22T22:34:53.483Z,100045.20
2019-05-22T22:37:26.185Z,100050.84
2019-05-22T22:40:00.228Z,100054.67
2019-05-22T22:42:36.603Z,100057.67
2019-05-22T22:45:09.094Z,100055.05
2019-05-22T22:47:44.981Z,100055.03
2019-05-22T22:50:18.121Z,100058.44
2019-05-22T22:52:51.090Z,100059.36
2019-05-22T22:55:23.782Z,100062.62
2019-05-22T22:57:55.626Z,100058.49
2019-05-22T23:00:35.874Z,100059.36
2019-05-22T23:03:09.987Z,100054.63
2019-05-22T23:05:41.949Z,100048.91
2019-05-22T23:08:16.456Z,100038.51
2019-05-22T23:10:50.311Z,100034.70
2019-05-22T23:13:22.884Z,100032.70
2019-05-22T23:15:54.786Z,100026.32
2019-05-22T23:19:11.491Z,100030.81
2019-05-22T23:21:40.610Z,100031.86
2019-05-22T23:24:14.711Z,100024.34
2019-05-22T23:26:45.872Z,100019.73
2019-05-22T23:29:17.297Z,100013.08
2019-05-22T23:31:49.881Z,100015.93
2019-05-22T23:34:20.557Z,100009.55
2019-05-22T23:36:52.673Z,100018.89
2019-05-22T23:39:24.149Z,100009.58
2019-05-22T23:41:58.974Z,100010.75
2019-05-22T23:44:31.693Z,100005.00
2019-05-22T23:47:04.268Z,100010.06
2019-05-22T23:49:37.439Z,100023.14
2019-05-22T23:52:08.812Z,100019.78
2019-05-22T23:54:40.434Z,100020.55
2019-05-22T23:58:03.409Z,100017.19
